createdAt,value
2023-05-01T00:02:36.000Z,98955.95
2023-05-01T00:07:36.000Z,98962.29
2023-05-01T00:12:36.000Z,98951.9
2023-05-01T00:17:35.000Z,98950.18
2023-05-01T00:22:36.000Z,98950.18
2023-05-01T00:27:36.000Z,98947.98
2023-05-01T00:32:36.000Z,98949.82
2023-05-01T00:37:35.000Z,98948.72
2023-05-01T00:42:35.000Z,98943.72
2023-05-01T00:47:35.000Z,98936.44
2023-05-01T00:52:36.000Z,98931.88
2023-05-01T00:57:35.000Z,98927.19
2023-05-01T01:02:36.000Z,98936.42
2023-05-01T01:07:35.000Z,98945.35
2023-05-01T01:12:35.000Z,98948.39
2023-05-01T01:17:36.000Z,98945.59
2023-05-01T01:22:36.000Z,98943.71
2023-05-01T01:27:36.000Z,98937.23
2023-05-01T01:32:36.000Z,98937.23
2023-05-01T01:37:35.000Z,98920.52
2023-05-01T01:42:35.000Z,98907.97
2023-05-01T01:47:36.000Z,98899.33
2023-05-01T01:52:36.000Z,98897.41
2023-05-01T01:57:35.000Z,98896.34
2023-05-01T02:02:36.000Z,98886.91
2023-05-01T02:07:35.000Z,98889.56
2023-05-01T02:12:35.000Z,98890.86
2023-05-01T02:17:36.000Z,98875.38
2023-05-01T02:22:35.000Z,98860.09
2023-05-01T02:27:35.000Z,98877.38
2023-05-01T02:32:36.000Z,98899.95
2023-05-01T02:37:36.000Z,98937.06
2023-05-01T02:42:35.000Z,98952.26
2023-05-01T02:47:36.000Z,98952.26
2023-05-01T02:52:35.000Z,98960.22
2023-05-01T02:57:35.000Z,98958.27
2023-05-01T03:02:36.000Z,98940.39
2023-05-01T03:07:35.000Z,98927.27
2023-05-01T03:12:35.000Z,98936.92
2023-05-01T03:17:35.000Z,98943.01
2023-05-01T03:22:36.000Z,98951.28
2023-05-01T03:27:36.000Z,98944.91
2023-05-01T03:32:36.000Z,98943.92
2023-05-01T03:37:36.000Z,98944.99
2023-05-01T03:42:36.000Z,98940.27
2023-05-01T03:47:36.000Z,98952.53
2023-05-01T03:52:36.000Z,98966.27
2023-05-01T03:57:35.000Z,98966.27
2023-05-01T04:02:36.000Z,98971.27
2023-05-01T04:07:36.000Z,98969.14
2023-05-01T04:12:35.000Z,98964.09
2023-05-01T04:17:36.000Z,98953.16
2023-05-01T04:22:35.000Z,98955.26
2023-05-01T04:27:36.000Z,98959.34
2023-05-01T04:32:36.000Z,98967.5
2023-05-01T04:37:35.000Z,98975.46
2023-05-01T04:42:36.000Z,98973.84
2023-05-01T04:47:35.000Z,98980.68
2023-05-01T04:52:36.000Z,98985.66
2023-05-01T04:57:36.000Z,98985.3
2023-05-01T05:02:36.000Z,98983.95
2023-05-01T05:07:36.000Z,98983.95
2023-05-01T05:12:36.000Z,98985.14
2023-05-01T05:17:36.000Z,98980.86
2023-05-01T05:22:35.000Z,98979.36
2023-05-01T05:27:36.000Z,98984.64
2023-05-01T05:32:36.000Z,98991.25
2023-05-01T05:37:36.000Z,98997.25
2023-05-01T05:42:36.000Z,98998.2
2023-05-01T05:47:35.000Z,99004.46
2023-05-01T05:52:35.000Z,99008.08
2023-05-01T05:57:36.000Z,99006.38
2023-05-01T06:02:36.000Z,99013.18
2023-05-01T06:07:36.000Z,99011.27
2023-05-01T06:12:36.000Z,99009.92
2023-05-01T06:17:35.000Z,99015.08
2023-05-01T06:22:36.000Z,99015.08
2023-05-01T06:27:35.000Z,99015.04
2023-05-01T06:32:36.000Z,99023.82
2023-05-01T06:37:35.000Z,99029.43
2023-05-01T06:42:36.000Z,99027.74
2023-05-01T06:47:36.000Z,99037.01
2023-05-01T06:52:36.000Z,99045.57
2023-05-01T06:57:35.000Z,99054.93
2023-05-01T07:02:35.000Z,99063.88
2023-05-01T07:07:36.000Z,99072.9
2023-05-01T07:12:35.000Z,99088.59
2023-05-01T07:17:35.000Z,99098.91
2023-05-01T07:22:36.000Z,99101.85
2023-05-01T07:27:35.000Z,99101.85
2023-05-01T07:32:36.000Z,99096.55
2023-05-01T07:37:35.000Z,99100.25
2023-05-01T07:42:35.000Z,99104.89
2023-05-01T07:47:36.000Z,99119.78
2023-05-01T07:52:36.000Z,99123.84
2023-05-01T07:57:35.000Z,99129.99
2023-05-01T08:02:35.000Z,99135.18
2023-05-01T08:07:35.000Z,99131.03
2023-05-01T08:12:36.000Z,99135.21
2023-05-01T08:17:36.000Z,99133.48
2023-05-01T08:22:35.000Z,99132.93
2023-05-01T08:27:35.000Z,99135.56
2023-05-01T08:32:36.000Z,99141.94
2023-05-01T08:37:35.000Z,99153.17
2023-05-01T08:42:35.000Z,99153.17
2023-05-01T08:47:35.000Z,99165.97
2023-05-01T08:52:35.000Z,99166.34
2023-05-01T08:57:35.000Z,99171.39
2023-05-01T09:02:36.000Z,99172.51
2023-05-01T09:07:36.000Z,99173.99
2023-05-01T09:12:35.000Z,99179.54
2023-05-01T09:17:35.000Z,99183.46
2023-05-01T09:22:35.000Z,99188.99
2023-05-01T09:27:36.000Z,99196.02
2023-05-01T09:32:36.000Z,99195.74
2023-05-01T09:37:35.000Z,99200.21
2023-05-01T09:42:35.000Z,99201.78
2023-05-01T09:47:36.000Z,99201.22
2023-05-01T09:52:36.000Z,99211.02
2023-05-01T09:57:35.000Z,99211.02
2023-05-01T10:02:35.000Z,99208.11
2023-05-01T10:07:35.000Z,99211.29
2023-05-01T10:12:36.000Z,99213.56
2023-05-01T10:17:35.000Z,99224.1
2023-05-01T10:22:36.000Z,99235.41
2023-05-01T10:27:36.000Z,99240.01
2023-05-01T10:32:36.000Z,99243.62
2023-05-01T10:37:35.000Z,99249.78
2023-05-01T10:42:36.000Z,99251.96
2023-05-01T10:47:35.000Z,99254.37
2023-05-01T10:52:41.000Z,99256.2
2023-05-01T10:57:35.000Z,99262.44
2023-05-01T11:02:37.000Z,99268.19
2023-05-01T11:07:35.000Z,99268.19
2023-05-01T11:12:35.000Z,99274.18
2023-05-01T11:17:36.000Z,99282.85
2023-05-01T11:22:36.000Z,99287.46
2023-05-01T11:27:36.000Z,99288.33
2023-05-01T11:32:36.000Z,99298.36
2023-05-01T11:37:35.000Z,99310.11
2023-05-01T11:42:36.000Z,99323.8
2023-05-01T11:47:36.000Z,99343.99
2023-05-01T11:52:35.000Z,99365.41
2023-05-01T11:57:36.000Z,99384.47
2023-05-01T12:02:36.000Z,99402.48
2023-05-01T12:07:39.000Z,99412.07
2023-05-01T12:12:35.000Z,99421.69
2023-05-01T12:17:36.000Z,99434.63
2023-05-01T12:22:36.000Z,99434.63
2023-05-01T12:27:36.000Z,99440.91
2023-05-01T12:32:36.000Z,99441.85
2023-05-01T12:37:35.000Z,99448.99
2023-05-01T12:42:35.000Z,99459.68
2023-05-01T12:47:36.000Z,99467.12
2023-05-01T12:52:35.000Z,99477.55
2023-05-01T12:57:36.000Z,99487.25
2023-05-01T13:02:54.000Z,99496.23
2023-05-01T13:07:35.000Z,99507.18
2023-05-01T13:12:35.000Z,99515.84
2023-05-01T13:17:35.000Z,99525.61
2023-05-01T13:22:35.000Z,99536.33
2023-05-01T13:27:36.000Z,99544.67
2023-05-01T13:32:38.000Z,99544.67
2023-05-01T13:37:36.000Z,99553.26
2023-05-01T13:42:36.000Z,99561.18
2023-05-01T13:47:36.000Z,99567.92
2023-05-01T13:52:35.000Z,99585.56
2023-05-01T13:57:36.000Z,99597.16
2023-05-01T14:02:36.000Z,99601.8
2023-05-01T14:07:36.000Z,99604.08
2023-05-01T14:12:36.000Z,99618.04
2023-05-01T14:17:35.000Z,99624.07
2023-05-01T14:22:36.000Z,99631.67
2023-05-01T14:27:36.000Z,99640.66
2023-05-01T14:32:35.000Z,99644.71
2023-05-01T14:37:36.000Z,99648.09
2023-05-01T14:42:35.000Z,99653.02
2023-05-01T14:47:37.000Z,99653.02
2023-05-01T14:52:35.000Z,99659.28
2023-05-01T14:57:38.000Z,99671.7
2023-05-01T15:02:35.000Z,99677.13
2023-05-01T15:07:36.000Z,99681.62
2023-05-01T15:12:35.000Z,99686.24
2023-05-01T15:17:35.000Z,99681.97
2023-05-01T15:22:35.000Z,99688.24
2023-05-01T15:27:35.000Z,99695.79
2023-05-01T15:32:36.000Z,99717.58
2023-05-01T15:37:36.000Z,99742.44
2023-05-01T15:42:35.000Z,99745.52
2023-05-01T15:47:35.000Z,99749.22
2023-05-01T15:52:35.000Z,99759
2023-05-01T15:57:35.000Z,99759
2023-05-01T16:02:36.000Z,99767.6
2023-05-01T16:07:35.000Z,99781.27
2023-05-01T16:12:35.000Z,99794.56
2023-05-01T16:17:36.000Z,99805.34
2023-05-01T16:22:36.000Z,99813.96
2023-05-01T16:27:35.000Z,99812.04
2023-05-01T16:32:36.000Z,99821.38
2023-05-01T16:37:35.000Z,99830.62
2023-05-01T16:42:35.000Z,99836.94
2023-05-01T16:47:35.000Z,99846
2023-05-01T16:52:36.000Z,99853.42
2023-05-01T16:57:35.000Z,99856.53
2023-05-01T17:02:36.000Z,99857.22
2023-05-01T17:07:36.000Z,99857.22
2023-05-01T17:12:36.000Z,99866.49
2023-05-01T17:17:36.000Z,99880.6
2023-05-01T17:22:39.000Z,99887.81
2023-05-01T17:27:36.000Z,99895.07
2023-05-01T17:32:47.000Z,99906.32
2023-05-01T17:37:35.000Z,99907
2023-05-01T17:42:36.000Z,99910.54
2023-05-01T17:47:36.000Z,99914.3
2023-05-01T17:52:35.000Z,99913.89
2023-05-01T17:57:36.000Z,99926.15
2023-05-01T18:02:36.000Z,99936.26
2023-05-01T18:07:36.000Z,99945.68
2023-05-01T18:12:35.000Z,99953.66
2023-05-01T18:17:36.000Z,99956.16
2023-05-01T18:22:35.000Z,99956.16
2023-05-01T18:27:36.000Z,99961.54
2023-05-01T18:32:49.000Z,99964.56
2023-05-01T18:37:35.000Z,99977.15
2023-05-01T18:42:35.000Z,99979.08
2023-05-01T18:47:36.000Z,99983.73
2023-05-01T18:52:35.000Z,99989.97
2023-05-01T18:57:35.000Z,99995.49
2023-05-01T19:02:35.000Z,100013.62
2023-05-01T19:07:35.000Z,100021.36
2023-05-01T19:12:36.000Z,100021.87
2023-05-01T19:17:36.000Z,100029.01
2023-05-01T19:22:36.000Z,100031
2023-05-01T19:27:36.000Z,100030.92
2023-05-01T19:32:36.000Z,100030.92
2023-05-01T19:37:36.000Z,100035.06
2023-05-01T19:42:36.000Z,100037.54
2023-05-01T19:47:35.000Z,100040.47
2023-05-01T19:52:35.000Z,100045.4
2023-05-01T19:57:35.000Z,100058.61
2023-05-01T20:02:36.000Z,100059.82
2023-05-01T20:07:36.000Z,100064.21
2023-05-01T20:12:35.000Z,100065.62
2023-05-01T20:17:35.000Z,100070.26
2023-05-01T20:22:36.000Z,100073.75
2023-05-01T20:27:35.000Z,100080.72
2023-05-01T20:32:35.000Z,100084.18
2023-05-01T20:37:35.000Z,100086.12
2023-05-01T20:42:35.000Z,100086.12
2023-05-01T20:47:36.000Z,100092.08
2023-05-01T20:52:36.000Z,100098.28
2023-05-01T20:57:35.000Z,100101.24
2023-05-01T21:02:35.000Z,100110.9
2023-05-01T21:07:36.000Z,100117.43
2023-05-01T21:12:36.000Z,100117.9
2023-05-01T21:17:36.000Z,100130.92
2023-05-01T21:22:35.000Z,100142.32
2023-05-01T21:27:36.000Z,100149.21
2023-05-01T21:32:35.000Z,100156.54
2023-05-01T21:37:36.000Z,100164.54
2023-05-01T21:42:35.000Z,100175.23
2023-05-01T21:47:35.000Z,100175.23
2023-05-01T21:52:35.000Z,100187.29
2023-05-01T21:57:35.000Z,100193.27
2023-05-01T22:02:35.000Z,100197.36
2023-05-01T22:07:36.000Z,100207.61
2023-05-01T22:12:36.000Z,100217.96
2023-05-01T22:17:36.000Z,100229.41
2023-05-01T22:22:35.000Z,100237.65
2023-05-01T22:27:35.000Z,100241.89
2023-05-01T22:32:35.000Z,100243.27
2023-05-01T22:37:36.000Z,100247.37
2023-05-01T22:42:36.000Z,100252.03
2023-05-01T22:47:35.000Z,100255.02
2023-05-01T22:52:36.000Z,100259.1
2023-05-01T22:57:36.000Z,100265.08
2023-05-01T23:02:35.000Z,100265.08
2023-05-01T23:07:36.000Z,100270.92
2023-05-01T23:12:36.000Z,100272.63
2023-05-01T23:17:35.000Z,100280.51
2023-05-01T23:22:36.000Z,100288.31
2023-05-01T23:27:36.000Z,100292.5
2023-05-01T23:32:35.000Z,100302.51
2023-05-01T23:37:35.000Z,100315.02
2023-05-01T23:42:35.000Z,100319.24
2023-05-01T23:47:36.000Z,100326.89
2023-05-01T23:52:35.000Z,100332.82
2023-05-01T23:57:35.000Z,100340.3
